sensor_id;sensor_type;location;lat;lon;timestamp;P1;durP1;ratioP1;P2;durP2;ratioP2
24277;SDS011;12394;42.692;23.314;2022-08-19T00:01:09;10.90;;;6.60;;
24277;SDS011;12394;42.692;23.314;2022-08-19T00:03:34;10.47;;;6.63;;
24277;SDS011;12394;42.692;23.314;2022-08-19T00:06:00;9.73;;;7.07;;
24277;SDS011;12394;42.692;23.314;2022-08-19T00:08:25;9.03;;;6.87;;
24277;SDS011;12394;42.692;23.314;2022-08-19T00:10:50;14.47;;;7.73;;
24277;SDS011;12394;42.692;23.314;2022-08-19T00:13:16;7.20;;;6.50;;
24277;SDS011;12394;42.692;23.314;2022-08-19T00:15:41;11.97;;;7.50;;
24277;SDS011;12394;42.692;23.314;2022-08-19T00:18:09;11.03;;;7.37;;
24277;SDS011;12394;42.692;23.314;2022-08-19T00:20:35;11.87;;;7.70;;
24277;SDS011;12394;42.692;23.314;2022-08-19T00:23:00;10.93;;;7.03;;
24277;SDS011;12394;42.692;23.314;2022-08-19T00:25:25;7.63;;;6.93;;
24277;SDS011;12394;42.692;23.314;2022-08-19T00:27:50;9.67;;;7.60;;
24277;SDS011;12394;42.692;23.314;2022-08-19T00:30:16;10.17;;;7.40;;
24277;SDS011;12394;42.692;23.314;2022-08-19T00:32:41;12.50;;;6.73;;
24277;SDS011;12394;42.692;23.314;2022-08-19T00:35:06;11.77;;;7.77;;
24277;SDS011;12394;42.692;23.314;2022-08-19T00:37:32;9.97;;;7.40;;
24277;SDS011;12394;42.692;23.314;2022-08-19T00:39:58;12.93;;;7.97;;
24277;SDS011;12394;42.692;23.314;2022-08-19T00:42:23;14.70;;;7.50;;
24277;SDS011;12394;42.692;23.314;2022-08-19T00:44:49;10.67;;;7.23;;
24277;SDS011;12394;42.692;23.314;2022-08-19T00:47:15;12.97;;;6.43;;
24277;SDS011;12394;42.692;23.314;2022-08-19T00:52:10;8.77;;;6.87;;
24277;SDS011;12394;42.692;23.314;2022-08-19T00:54:37;8.40;;;6.73;;
24277;SDS011;12394;42.692;23.314;2022-08-19T00:57:04;9.43;;;6.53;;
24277;SDS011;12394;42.692;23.314;2022-08-19T00:59:31;10.23;;;6.60;;
24277;SDS011;12394;42.692;23.314;2022-08-19T01:01:59;10.17;;;6.40;;
24277;SDS011;12394;42.692;23.314;2022-08-19T01:04:24;9.63;;;6.47;;
24277;SDS011;12394;42.692;23.314;2022-08-19T01:06:50;8.47;;;7.20;;
24277;SDS011;12394;42.692;23.314;2022-08-19T01:09:15;9.33;;;6.27;;
24277;SDS011;12394;42.692;23.314;2022-08-19T01:11:41;10.40;;;6.27;;
24277;SDS011;12394;42.692;23.314;2022-08-19T01:14:08;7.93;;;6.33;;
24277;SDS011;12394;42.692;23.314;2022-08-19T01:16:34;12.60;;;8.40;;
24277;SDS011;12394;42.692;23.314;2022-08-19T01:18:59;12.90;;;8.00;;
24277;SDS011;12394;42.692;23.314;2022-08-19T01:21:27;11.77;;;8.23;;
24277;SDS011;12394;42.692;23.314;2022-08-19T01:23:54;14.93;;;8.33;;
24277;SDS011;12394;42.692;23.314;2022-08-19T01:26:21;11.57;;;7.87;;
24277;SDS011;12394;42.692;23.314;2022-08-19T01:28:48;11.87;;;6.50;;
24277;SDS011;12394;42.692;23.314;2022-08-19T01:31:14;13.97;;;6.50;;
24277;SDS011;12394;42.692;23.314;2022-08-19T01:33:40;14.73;;;6.40;;
24277;SDS011;12394;42.692;23.314;2022-08-19T01:36:07;11.57;;;6.07;;
24277;SDS011;12394;42.692;23.314;2022-08-19T01:38:34;9.83;;;6.47;;
24277;SDS011;12394;42.692;23.314;2022-08-19T01:41:00;11.33;;;5.97;;
24277;SDS011;12394;42.692;23.314;2022-08-19T01:43:25;8.80;;;5.97;;
24277;SDS011;12394;42.692;23.314;2022-08-19T01:45:51;11.33;;;5.77;;
24277;SDS011;12394;42.692;23.314;2022-08-19T01:48:17;8.13;;;6.27;;
24277;SDS011;12394;42.692;23.314;2022-08-19T01:50:42;13.50;;;6.50;;
24277;SDS011;12394;42.692;23.314;2022-08-19T01:53:09;8.47;;;6.33;;
24277;SDS011;12394;42.692;23.314;2022-08-19T01:55:36;9.97;;;6.03;;
24277;SDS011;12394;42.692;23.314;2022-08-19T01:58:02;11.10;;;6.50;;
24277;SDS011;12394;42.692;23.314;2022-08-19T02:00:30;6.63;;;5.97;;
24277;SDS011;12394;42.692;23.314;2022-08-19T02:02:56;9.57;;;6.83;;
24277;SDS011;12394;42.692;23.314;2022-08-19T02:05:21;7.93;;;5.87;;
24277;SDS011;12394;42.692;23.314;2022-08-19T02:07:47;8.80;;;6.27;;
24277;SDS011;12394;42.692;23.314;2022-08-19T02:10:13;8.97;;;6.63;;
24277;SDS011;12394;42.692;23.314;2022-08-19T02:12:39;9.27;;;6.73;;
24277;SDS011;12394;42.692;23.314;2022-08-19T02:15:04;9.07;;;6.83;;
24277;SDS011;12394;42.692;23.314;2022-08-19T02:17:31;9.80;;;7.17;;
24277;SDS011;12394;42.692;23.314;2022-08-19T02:19:56;10.70;;;6.73;;
24277;SDS011;12394;42.692;23.314;2022-08-19T02:22:22;9.90;;;6.97;;
24277;SDS011;12394;42.692;23.314;2022-08-19T02:24:47;8.53;;;6.77;;
24277;SDS011;12394;42.692;23.314;2022-08-19T02:27:13;9.37;;;7.43;;
24277;SDS011;12394;42.692;23.314;2022-08-19T02:29:38;8.30;;;7.10;;
24277;SDS011;12394;42.692;23.314;2022-08-19T02:32:03;12.73;;;6.97;;
24277;SDS011;12394;42.692;23.314;2022-08-19T02:34:29;9.60;;;6.77;;
24277;SDS011;12394;42.692;23.314;2022-08-19T02:36:54;17.03;;;6.90;;
24277;SDS011;12394;42.692;23.314;2022-08-19T02:39:19;13.43;;;7.40;;
24277;SDS011;12394;42.692;23.314;2022-08-19T02:41:45;10.63;;;7.10;;
24277;SDS011;12394;42.692;23.314;2022-08-19T02:44:10;14.33;;;7.27;;
24277;SDS011;12394;42.692;23.314;2022-08-19T02:46:35;9.63;;;6.90;;
24277;SDS011;12394;42.692;23.314;2022-08-19T02:49:03;7.70;;;6.80;;
24277;SDS011;12394;42.692;23.314;2022-08-19T02:51:34;10.10;;;7.07;;
24277;SDS011;12394;42.692;23.314;2022-08-19T02:54:00;8.20;;;6.93;;
24277;SDS011;12394;42.692;23.314;2022-08-19T02:56:25;15.23;;;7.53;;
24277;SDS011;12394;42.692;23.314;2022-08-19T02:58:52;15.97;;;7.43;;
24277;SDS011;12394;42.692;23.314;2022-08-19T03:01:27;12.93;;;11.63;;
24277;SDS011;12394;42.692;23.314;2022-08-19T03:03:54;13.80;;;9.20;;
24277;SDS011;12394;42.692;23.314;2022-08-19T03:06:20;10.00;;;8.97;;
24277;SDS011;12394;42.692;23.314;2022-08-19T03:08:46;9.00;;;8.10;;
24277;SDS011;12394;42.692;23.314;2022-08-19T03:11:12;10.27;;;7.77;;
24277;SDS011;12394;42.692;23.314;2022-08-19T03:13:38;9.83;;;8.67;;
24277;SDS011;12394;42.692;23.314;2022-08-19T03:16:04;11.67;;;7.90;;
24277;SDS011;12394;42.692;23.314;2022-08-19T03:18:29;9.50;;;8.47;;
24277;SDS011;12394;42.692;23.314;2022-08-19T03:20:54;11.10;;;8.27;;
24277;SDS011;12394;42.692;23.314;2022-08-19T03:23:20;14.00;;;8.03;;
24277;SDS011;12394;42.692;23.314;2022-08-19T03:25:47;16.67;;;8.80;;
24277;SDS011;12394;42.692;23.314;2022-08-19T03:28:13;8.80;;;7.90;;
24277;SDS011;12394;42.692;23.314;2022-08-19T03:30:39;11.07;;;8.80;;
24277;SDS011;12394;42.692;23.314;2022-08-19T03:33:06;11.13;;;8.60;;
24277;SDS011;12394;42.692;23.314;2022-08-19T03:35:31;9.87;;;7.50;;
24277;SDS011;12394;42.692;23.314;2022-08-19T03:37:58;15.43;;;8.93;;
24277;SDS011;12394;42.692;23.314;2022-08-19T03:40:23;15.07;;;8.77;;
24277;SDS011;12394;42.692;23.314;2022-08-19T03:42:48;10.87;;;7.70;;
24277;SDS011;12394;42.692;23.314;2022-08-19T03:45:14;9.67;;;7.87;;
24277;SDS011;12394;42.692;23.314;2022-08-19T03:47:40;10.00;;;7.57;;
24277;SDS011;12394;42.692;23.314;2022-08-19T03:50:05;15.13;;;9.17;;
24277;SDS011;12394;42.692;23.314;2022-08-19T03:52:31;16.13;;;9.60;;
24277;SDS011;12394;42.692;23.314;2022-08-19T03:54:56;28.63;;;10.00;;
24277;SDS011;12394;42.692;23.314;2022-08-19T03:57:21;13.13;;;8.63;;
24277;SDS011;12394;42.692;23.314;2022-08-19T03:59:46;12.67;;;8.33;;
24277;SDS011;12394;42.692;23.314;2022-08-19T04:02:12;9.43;;;8.43;;
24277;SDS011;12394;42.692;23.314;2022-08-19T04:04:38;9.57;;;8.60;;
24277;SDS011;12394;42.692;23.314;2022-08-19T04:07:03;11.83;;;8.63;;
24277;SDS011;12394;42.692;23.314;2022-08-19T04:09:29;13.63;;;8.37;;
24277;SDS011;12394;42.692;23.314;2022-08-19T04:11:54;15.73;;;9.40;;
24277;SDS011;12394;42.692;23.314;2022-08-19T04:14:21;17.43;;;8.87;;
24277;SDS011;12394;42.692;23.314;2022-08-19T04:16:47;14.67;;;8.80;;
24277;SDS011;12394;42.692;23.314;2022-08-19T04:19:13;13.17;;;8.20;;
24277;SDS011;12394;42.692;23.314;2022-08-19T04:21:38;14.70;;;8.77;;
24277;SDS011;12394;42.692;23.314;2022-08-19T04:24:04;15.20;;;9.17;;
24277;SDS011;12394;42.692;23.314;2022-08-19T04:26:30;19.53;;;9.63;;
24277;SDS011;12394;42.692;23.314;2022-08-19T04:28:57;17.93;;;9.63;;
24277;SDS011;12394;42.692;23.314;2022-08-19T04:31:24;24.10;;;10.80;;
24277;SDS011;12394;42.692;23.314;2022-08-19T04:33:53;18.33;;;9.83;;
24277;SDS011;12394;42.692;23.314;2022-08-19T04:36:23;15.03;;;9.80;;
24277;SDS011;12394;42.692;23.314;2022-08-19T04:38:48;10.73;;;8.90;;
24277;SDS011;12394;42.692;23.314;2022-08-19T04:41:14;11.07;;;9.53;;
24277;SDS011;12394;42.692;23.314;2022-08-19T04:43:58;9.83;;;8.83;;
24277;SDS011;12394;42.692;23.314;2022-08-19T04:46:24;11.87;;;9.70;;
24277;SDS011;12394;42.692;23.314;2022-08-19T04:48:50;13.37;;;9.50;;
24277;SDS011;12394;42.692;23.314;2022-08-19T04:51:15;13.77;;;10.50;;
24277;SDS011;12394;42.692;23.314;2022-08-19T04:53:41;15.87;;;11.10;;
24277;SDS011;12394;42.692;23.314;2022-08-19T04:56:08;12.60;;;10.23;;
24277;SDS011;12394;42.692;23.314;2022-08-19T04:58:34;15.43;;;10.27;;
24277;SDS011;12394;42.692;23.314;2022-08-19T05:00:59;25.93;;;12.43;;
24277;SDS011;12394;42.692;23.314;2022-08-19T05:03:25;19.63;;;11.47;;
24277;SDS011;12394;42.692;23.314;2022-08-19T05:05:50;24.17;;;13.80;;
24277;SDS011;12394;42.692;23.314;2022-08-19T05:08:17;22.87;;;11.80;;
24277;SDS011;12394;42.692;23.314;2022-08-19T05:10:45;20.73;;;11.37;;
24277;SDS011;12394;42.692;23.314;2022-08-19T05:13:10;15.73;;;11.10;;
24277;SDS011;12394;42.692;23.314;2022-08-19T05:15:36;16.27;;;10.60;;
24277;SDS011;12394;42.692;23.314;2022-08-19T05:18:01;16.47;;;10.10;;
24277;SDS011;12394;42.692;23.314;2022-08-19T05:20:45;22.33;;;13.10;;
24277;SDS011;12394;42.692;23.314;2022-08-19T05:23:29;17.53;;;10.50;;
24277;SDS011;12394;42.692;23.314;2022-08-19T05:25:54;18.53;;;10.23;;
24277;SDS011;12394;42.692;23.314;2022-08-19T05:28:20;14.03;;;12.40;;
24277;SDS011;12394;42.692;23.314;2022-08-19T05:30:45;24.07;;;15.30;;
24277;SDS011;12394;42.692;23.314;2022-08-19T05:33:11;24.97;;;12.53;;
24277;SDS011;12394;42.692;23.314;2022-08-19T05:35:40;17.60;;;11.60;;
24277;SDS011;12394;42.692;23.314;2022-08-19T05:38:06;16.57;;;11.57;;
24277;SDS011;12394;42.692;23.314;2022-08-19T05:40:36;22.87;;;15.07;;
24277;SDS011;12394;42.692;23.314;2022-08-19T05:43:02;17.60;;;11.83;;
24277;SDS011;12394;42.692;23.314;2022-08-19T05:45:28;21.23;;;13.63;;
24277;SDS011;12394;42.692;23.314;2022-08-19T05:47:53;16.07;;;11.13;;
24277;SDS011;12394;42.692;23.314;2022-08-19T05:50:19;16.47;;;10.40;;
24277;SDS011;12394;42.692;23.314;2022-08-19T05:52:44;23.27;;;15.30;;
24277;SDS011;12394;42.692;23.314;2022-08-19T05:55:10;24.00;;;12.90;;
24277;SDS011;12394;42.692;23.314;2022-08-19T05:57:35;25.67;;;16.17;;
24277;SDS011;12394;42.692;23.314;2022-08-19T06:00:01;20.93;;;12.17;;
24277;SDS011;12394;42.692;23.314;2022-08-19T06:02:28;30.70;;;17.33;;
24277;SDS011;12394;42.692;23.314;2022-08-19T06:04:55;23.80;;;14.20;;
24277;SDS011;12394;42.692;23.314;2022-08-19T06:07:20;18.07;;;13.23;;
24277;SDS011;12394;42.692;23.314;2022-08-19T06:09:45;18.73;;;13.17;;
24277;SDS011;12394;42.692;23.314;2022-08-19T06:12:11;21.47;;;17.60;;
24277;SDS011;12394;42.692;23.314;2022-08-19T06:14:36;28.30;;;13.80;;
24277;SDS011;12394;42.692;23.314;2022-08-19T06:17:02;21.53;;;11.13;;
24277;SDS011;12394;42.692;23.314;2022-08-19T06:19:28;23.00;;;12.60;;
24277;SDS011;12394;42.692;23.314;2022-08-19T06:21:55;27.27;;;15.33;;
24277;SDS011;12394;42.692;23.314;2022-08-19T06:24:21;22.57;;;13.40;;
24277;SDS011;12394;42.692;23.314;2022-08-19T06:26:49;28.87;;;12.30;;
24277;SDS011;12394;42.692;23.314;2022-08-19T06:29:16;18.53;;;11.47;;
24277;SDS011;12394;42.692;23.314;2022-08-19T06:31:43;19.37;;;11.80;;
24277;SDS011;12394;42.692;23.314;2022-08-19T06:34:09;24.63;;;12.07;;
24277;SDS011;12394;42.692;23.314;2022-08-19T06:36:35;17.10;;;12.23;;
24277;SDS011;12394;42.692;23.314;2022-08-19T06:39:03;15.77;;;10.67;;
24277;SDS011;12394;42.692;23.314;2022-08-19T06:41:29;14.67;;;10.87;;
24277;SDS011;12394;42.692;23.314;2022-08-19T06:43:56;18.60;;;10.40;;
24277;SDS011;12394;42.692;23.314;2022-08-19T06:46:21;18.77;;;12.40;;
24277;SDS011;12394;42.692;23.314;2022-08-19T06:48:47;18.07;;;10.97;;
24277;SDS011;12394;42.692;23.314;2022-08-19T06:51:13;19.37;;;10.23;;
24277;SDS011;12394;42.692;23.314;2022-08-19T06:53:40;18.10;;;9.47;;
24277;SDS011;12394;42.692;23.314;2022-08-19T06:56:05;15.00;;;10.50;;
24277;SDS011;12394;42.692;23.314;2022-08-19T06:58:31;16.77;;;10.23;;
24277;SDS011;12394;42.692;23.314;2022-08-19T07:01:00;12.60;;;8.73;;
24277;SDS011;12394;42.692;23.314;2022-08-19T07:03:30;12.73;;;8.93;;
24277;SDS011;12394;42.692;23.314;2022-08-19T07:05:56;11.87;;;9.13;;
24277;SDS011;12394;42.692;23.314;2022-08-19T07:08:21;11.20;;;8.83;;
24277;SDS011;12394;42.692;23.314;2022-08-19T07:10:47;25.33;;;19.87;;
24277;SDS011;12394;42.692;23.314;2022-08-19T07:13:13;15.77;;;9.43;;
24277;SDS011;12394;42.692;23.314;2022-08-19T07:15:38;16.30;;;9.17;;
24277;SDS011;12394;42.692;23.314;2022-08-19T07:18:03;16.13;;;8.73;;
24277;SDS011;12394;42.692;23.314;2022-08-19T07:20:29;13.70;;;9.20;;
24277;SDS011;12394;42.692;23.314;2022-08-19T07:22:55;19.80;;;9.43;;
24277;SDS011;12394;42.692;23.314;2022-08-19T07:25:20;20.37;;;8.87;;
24277;SDS011;12394;42.692;23.314;2022-08-19T07:27:48;15.70;;;8.97;;
24277;SDS011;12394;42.692;23.314;2022-08-19T07:30:13;20.17;;;9.07;;
24277;SDS011;12394;42.692;23.314;2022-08-19T07:32:39;18.17;;;9.77;;
24277;SDS011;12394;42.692;23.314;2022-08-19T07:35:04;14.43;;;8.27;;
24277;SDS011;12394;42.692;23.314;2022-08-19T07:37:31;17.20;;;9.50;;
24277;SDS011;12394;42.692;23.314;2022-08-19T07:39:56;23.50;;;9.40;;
24277;SDS011;12394;42.692;23.314;2022-08-19T07:42:21;14.70;;;9.20;;
24277;SDS011;12394;42.692;23.314;2022-08-19T07:44:47;13.90;;;9.07;;
24277;SDS011;12394;42.692;23.314;2022-08-19T07:47:12;16.90;;;8.67;;
24277;SDS011;12394;42.692;23.314;2022-08-19T07:49:40;12.70;;;7.53;;
24277;SDS011;12394;42.692;23.314;2022-08-19T07:52:07;12.43;;;8.60;;
24277;SDS011;12394;42.692;23.314;2022-08-19T07:54:33;14.40;;;7.63;;
24277;SDS011;12394;42.692;23.314;2022-08-19T07:57:01;15.50;;;9.57;;
24277;SDS011;12394;42.692;23.314;2022-08-19T07:59:28;18.53;;;8.87;;
24277;SDS011;12394;42.692;23.314;2022-08-19T08:01:53;11.10;;;7.77;;
24277;SDS011;12394;42.692;23.314;2022-08-19T08:04:19;15.90;;;9.30;;
24277;SDS011;12394;42.692;23.314;2022-08-19T08:07:03;13.93;;;8.30;;
24277;SDS011;12394;42.692;23.314;2022-08-19T08:09:47;15.85;;;8.80;;
24277;SDS011;12394;42.692;23.314;2022-08-19T08:12:15;11.82;;;7.85;;
24277;SDS011;12394;42.692;23.314;2022-08-19T08:14:45;11.25;;;8.05;;
24277;SDS011;12394;42.692;23.314;2022-08-19T08:17:12;11.93;;;9.40;;
24277;SDS011;12394;42.692;23.314;2022-08-19T08:19:39;13.57;;;8.75;;
24277;SDS011;12394;42.692;23.314;2022-08-19T08:22:06;11.70;;;7.32;;
24277;SDS011;12394;42.692;23.314;2022-08-19T08:24:31;13.30;;;8.20;;
24277;SDS011;12394;42.692;23.314;2022-08-19T08:26:57;13.48;;;7.93;;
24277;SDS011;12394;42.692;23.314;2022-08-19T08:29:24;11.40;;;7.47;;
24277;SDS011;12394;42.692;23.314;2022-08-19T08:31:50;14.35;;;7.40;;
24277;SDS011;12394;42.692;23.314;2022-08-19T08:34:16;10.93;;;7.10;;
24277;SDS011;12394;42.692;23.314;2022-08-19T08:36:42;8.00;;;6.40;;
24277;SDS011;12394;42.692;23.314;2022-08-19T08:39:09;10.80;;;6.32;;
24277;SDS011;12394;42.692;23.314;2022-08-19T08:44:10;11.90;;;6.32;;
24277;SDS011;12394;42.692;23.314;2022-08-19T08:49:11;10.38;;;5.78;;
24277;SDS011;12394;42.692;23.314;2022-08-19T08:51:42;11.35;;;5.93;;
24277;SDS011;12394;42.692;23.314;2022-08-19T08:54:10;8.35;;;4.82;;
24277;SDS011;12394;42.692;23.314;2022-08-19T08:56:39;8.82;;;4.93;;
24277;SDS011;12394;42.692;23.314;2022-08-19T08:59:07;10.07;;;4.90;;
24277;SDS011;12394;42.692;23.314;2022-08-19T09:01:35;10.75;;;5.70;;
24277;SDS011;12394;42.692;23.314;2022-08-19T09:04:02;7.15;;;5.57;;
24277;SDS011;12394;42.692;23.314;2022-08-19T09:09:16;11.90;;;6.40;;
24277;SDS011;12394;42.692;23.314;2022-08-19T09:16:52;16.27;;;6.32;;
24277;SDS011;12394;42.692;23.314;2022-08-19T09:19:17;9.10;;;5.70;;
24277;SDS011;12394;42.692;23.314;2022-08-19T09:21:42;9.77;;;5.80;;
24277;SDS011;12394;42.692;23.314;2022-08-19T09:24:08;7.30;;;5.50;;
24277;SDS011;12394;42.692;23.314;2022-08-19T09:26:33;9.48;;;5.70;;
24277;SDS011;12394;42.692;23.314;2022-08-19T09:28:59;14.20;;;6.00;;
24277;SDS011;12394;42.692;23.314;2022-08-19T09:31:27;7.05;;;4.43;;
24277;SDS011;12394;42.692;23.314;2022-08-19T09:33:53;7.22;;;6.00;;
24277;SDS011;12394;42.692;23.314;2022-08-19T09:36:22;6.97;;;4.55;;
24277;SDS011;12394;42.692;23.314;2022-08-19T09:38:48;9.63;;;4.75;;
24277;SDS011;12394;42.692;23.314;2022-08-19T09:41:14;6.20;;;5.18;;
24277;SDS011;12394;42.692;23.314;2022-08-19T09:43:40;4.93;;;4.30;;
24277;SDS011;12394;42.692;23.314;2022-08-19T09:46:06;4.40;;;4.00;;
24277;SDS011;12394;42.692;23.314;2022-08-19T09:48:34;5.47;;;3.90;;
24277;SDS011;12394;42.692;23.314;2022-08-19T09:51:06;4.68;;;3.60;;
24277;SDS011;12394;42.692;23.314;2022-08-19T09:53:33;4.50;;;4.03;;
24277;SDS011;12394;42.692;23.314;2022-08-19T09:55:58;4.40;;;3.70;;
24277;SDS011;12394;42.692;23.314;2022-08-19T09:58:23;6.45;;;4.10;;
24277;SDS011;12394;42.692;23.314;2022-08-19T10:00:53;4.63;;;4.07;;
24277;SDS011;12394;42.692;23.314;2022-08-19T10:03:18;4.18;;;3.30;;
24277;SDS011;12394;42.692;23.314;2022-08-19T10:05:43;6.25;;;3.50;;
24277;SDS011;12394;42.692;23.314;2022-08-19T10:08:25;4.78;;;4.15;;
24277;SDS011;12394;42.692;23.314;2022-08-19T10:10:51;7.20;;;4.53;;
24277;SDS011;12394;42.692;23.314;2022-08-19T10:13:17;4.35;;;3.60;;
24277;SDS011;12394;42.692;23.314;2022-08-19T10:15:43;9.02;;;5.07;;
24277;SDS011;12394;42.692;23.314;2022-08-19T10:18:09;4.20;;;3.50;;
24277;SDS011;12394;42.692;23.314;2022-08-19T10:20:34;4.65;;;4.25;;
24277;SDS011;12394;42.692;23.314;2022-08-19T10:23:01;8.57;;;4.80;;
24277;SDS011;12394;42.692;23.314;2022-08-19T10:25:26;7.63;;;3.97;;
24277;SDS011;12394;42.692;23.314;2022-08-19T10:27:52;6.50;;;4.15;;
24277;SDS011;12394;42.692;23.314;2022-08-19T10:30:17;8.38;;;3.80;;
24277;SDS011;12394;42.692;23.314;2022-08-19T10:32:43;4.03;;;3.63;;
24277;SDS011;12394;42.692;23.314;2022-08-19T10:35:09;5.03;;;4.07;;
24277;SDS011;12394;42.692;23.314;2022-08-19T10:37:36;5.70;;;5.07;;
24277;SDS011;12394;42.692;23.314;2022-08-19T10:40:03;4.85;;;4.30;;
24277;SDS011;12394;42.692;23.314;2022-08-19T10:42:28;6.03;;;4.38;;
24277;SDS011;12394;42.692;23.314;2022-08-19T10:44:56;4.13;;;3.75;;
24277;SDS011;12394;42.692;23.314;2022-08-19T10:47:21;5.25;;;4.20;;
24277;SDS011;12394;42.692;23.314;2022-08-19T10:49:48;5.88;;;4.00;;
24277;SDS011;12394;42.692;23.314;2022-08-19T10:52:32;11.32;;;5.65;;
24277;SDS011;12394;42.692;23.314;2022-08-19T10:55:01;5.05;;;4.57;;
24277;SDS011;12394;42.692;23.314;2022-08-19T10:57:45;11.63;;;6.10;;
24277;SDS011;12394;42.692;23.314;2022-08-19T11:00:11;6.72;;;5.13;;
24277;SDS011;12394;42.692;23.314;2022-08-19T11:02:36;8.70;;;5.60;;
24277;SDS011;12394;42.692;23.314;2022-08-19T11:05:02;6.88;;;4.82;;
24277;SDS011;12394;42.692;23.314;2022-08-19T11:07:27;6.13;;;4.70;;
24277;SDS011;12394;42.692;23.314;2022-08-19T11:09:52;6.65;;;5.10;;
24277;SDS011;12394;42.692;23.314;2022-08-19T11:12:17;7.65;;;5.07;;
24277;SDS011;12394;42.692;23.314;2022-08-19T11:14:44;4.57;;;4.18;;
24277;SDS011;12394;42.692;23.314;2022-08-19T11:17:09;6.13;;;5.28;;
24277;SDS011;12394;42.692;23.314;2022-08-19T11:19:37;8.13;;;5.40;;
24277;SDS011;12394;42.692;23.314;2022-08-19T11:22:02;5.88;;;5.25;;
24277;SDS011;12394;42.692;23.314;2022-08-19T11:24:28;6.32;;;5.22;;
24277;SDS011;12394;42.692;23.314;2022-08-19T11:26:54;5.55;;;4.88;;
24277;SDS011;12394;42.692;23.314;2022-08-19T11:29:24;5.65;;;4.65;;
24277;SDS011;12394;42.692;23.314;2022-08-19T11:31:50;6.27;;;4.77;;
24277;SDS011;12394;42.692;23.314;2022-08-19T11:34:19;7.82;;;6.15;;
24277;SDS011;12394;42.692;23.314;2022-08-19T11:36:45;6.53;;;5.60;;
24277;SDS011;12394;42.692;23.314;2022-08-19T11:39:11;6.33;;;5.50;;
24277;SDS011;12394;42.692;23.314;2022-08-19T11:41:37;7.47;;;4.97;;
24277;SDS011;12394;42.692;23.314;2022-08-19T11:44:02;5.73;;;5.30;;
24277;SDS011;12394;42.692;23.314;2022-08-19T11:46:29;7.60;;;5.80;;
24277;SDS011;12394;42.692;23.314;2022-08-19T11:48:55;5.50;;;4.87;;
24277;SDS011;12394;42.692;23.314;2022-08-19T11:51:22;9.15;;;6.03;;
24277;SDS011;12394;42.692;23.314;2022-08-19T11:53:49;9.43;;;5.63;;
24277;SDS011;12394;42.692;23.314;2022-08-19T11:56:15;6.72;;;5.30;;
24277;SDS011;12394;42.692;23.314;2022-08-19T11:58:41;6.93;;;5.10;;
24277;SDS011;12394;42.692;23.314;2022-08-19T12:01:09;7.77;;;5.23;;
24277;SDS011;12394;42.692;23.314;2022-08-19T12:03:36;7.27;;;5.20;;
24277;SDS011;12394;42.692;23.314;2022-08-19T12:06:03;7.93;;;5.00;;
24277;SDS011;12394;42.692;23.314;2022-08-19T12:08:28;12.13;;;5.47;;
24277;SDS011;12394;42.692;23.314;2022-08-19T12:10:54;7.43;;;5.87;;
24277;SDS011;12394;42.692;23.314;2022-08-19T12:13:19;9.47;;;6.10;;
24277;SDS011;12394;42.692;23.314;2022-08-19T12:15:45;9.27;;;7.17;;
24277;SDS011;12394;42.692;23.314;2022-08-19T12:18:11;8.27;;;4.93;;
24277;SDS011;12394;42.692;23.314;2022-08-19T12:20:39;7.13;;;5.07;;
24277;SDS011;12394;42.692;23.314;2022-08-19T12:23:05;17.33;;;8.93;;
24277;SDS011;12394;42.692;23.314;2022-08-19T12:25:31;11.10;;;6.17;;
24277;SDS011;12394;42.692;23.314;2022-08-19T12:27:56;7.70;;;5.23;;
24277;SDS011;12394;42.692;23.314;2022-08-19T12:30:21;7.17;;;5.77;;
24277;SDS011;12394;42.692;23.314;2022-08-19T12:32:47;10.03;;;5.53;;
24277;SDS011;12394;42.692;23.314;2022-08-19T12:35:12;6.97;;;4.63;;
24277;SDS011;12394;42.692;23.314;2022-08-19T12:37:38;8.67;;;4.93;;
24277;SDS011;12394;42.692;23.314;2022-08-19T12:40:04;7.87;;;4.77;;
24277;SDS011;12394;42.692;23.314;2022-08-19T12:42:30;5.60;;;4.90;;
24277;SDS011;12394;42.692;23.314;2022-08-19T12:44:55;9.00;;;5.10;;
24277;SDS011;12394;42.692;23.314;2022-08-19T12:47:20;8.40;;;5.17;;
24277;SDS011;12394;42.692;23.314;2022-08-19T12:49:46;8.47;;;5.73;;
24277;SDS011;12394;42.692;23.314;2022-08-19T12:52:12;8.53;;;5.50;;
24277;SDS011;12394;42.692;23.314;2022-08-19T12:54:40;7.33;;;5.27;;
24277;SDS011;12394;42.692;23.314;2022-08-19T12:57:06;11.17;;;5.60;;
24277;SDS011;12394;42.692;23.314;2022-08-19T12:59:32;7.67;;;5.10;;
24277;SDS011;12394;42.692;23.314;2022-08-19T13:01:58;10.80;;;5.23;;
24277;SDS011;12394;42.692;23.314;2022-08-19T13:04:24;8.57;;;5.77;;
24277;SDS011;12394;42.692;23.314;2022-08-19T13:06:49;6.23;;;4.60;;
24277;SDS011;12394;42.692;23.314;2022-08-19T13:09:14;6.03;;;5.37;;
24277;SDS011;12394;42.692;23.314;2022-08-19T13:11:39;11.27;;;6.27;;
24277;SDS011;12394;42.692;23.314;2022-08-19T13:14:05;7.87;;;5.20;;
24277;SDS011;12394;42.692;23.314;2022-08-19T13:16:30;8.23;;;5.00;;
24277;SDS011;12394;42.692;23.314;2022-08-19T13:18:56;6.60;;;5.33;;
24277;SDS011;12394;42.692;23.314;2022-08-19T13:21:22;7.30;;;4.73;;
24277;SDS011;12394;42.692;23.314;2022-08-19T13:23:48;8.87;;;6.13;;
24277;SDS011;12394;42.692;23.314;2022-08-19T13:26:14;6.73;;;5.07;;
24277;SDS011;12394;42.692;23.314;2022-08-19T13:28:40;10.27;;;5.23;;
24277;SDS011;12394;42.692;23.314;2022-08-19T13:31:25;9.10;;;6.07;;
24277;SDS011;12394;42.692;23.314;2022-08-19T13:34:09;7.00;;;5.73;;
24277;SDS011;12394;42.692;23.314;2022-08-19T13:36:35;11.67;;;5.40;;
24277;SDS011;12394;42.692;23.314;2022-08-19T13:39:01;7.50;;;4.87;;
24277;SDS011;12394;42.692;23.314;2022-08-19T13:41:26;9.80;;;5.33;;
24277;SDS011;12394;42.692;23.314;2022-08-19T13:43:52;7.63;;;5.03;;
24277;SDS011;12394;42.692;23.314;2022-08-19T13:46:17;6.93;;;5.27;;
24277;SDS011;12394;42.692;23.314;2022-08-19T13:48:44;5.63;;;5.13;;
24277;SDS011;12394;42.692;23.314;2022-08-19T13:51:09;10.00;;;5.10;;
24277;SDS011;12394;42.692;23.314;2022-08-19T13:53:36;6.27;;;4.63;;
24277;SDS011;12394;42.692;23.314;2022-08-19T13:56:06;6.07;;;4.80;;
24277;SDS011;12394;42.692;23.314;2022-08-19T13:58:32;17.60;;;6.90;;
24277;SDS011;12394;42.692;23.314;2022-08-19T14:00:57;6.63;;;5.37;;
24277;SDS011;12394;42.692;23.314;2022-08-19T14:03:24;5.30;;;4.80;;
24277;SDS011;12394;42.692;23.314;2022-08-19T14:05:49;7.23;;;4.87;;
24277;SDS011;12394;42.692;23.314;2022-08-19T14:08:16;11.93;;;5.03;;
24277;SDS011;12394;42.692;23.314;2022-08-19T14:10:41;6.23;;;5.13;;
24277;SDS011;12394;42.692;23.314;2022-08-19T14:13:09;10.83;;;5.77;;
24277;SDS011;12394;42.692;23.314;2022-08-19T14:15:34;10.47;;;6.17;;
24277;SDS011;12394;42.692;23.314;2022-08-19T14:17:59;8.30;;;5.37;;
24277;SDS011;12394;42.692;23.314;2022-08-19T14:20:25;8.87;;;5.60;;
24277;SDS011;12394;42.692;23.314;2022-08-19T14:22:50;7.90;;;5.50;;
24277;SDS011;12394;42.692;23.314;2022-08-19T14:25:17;9.93;;;5.47;;
24277;SDS011;12394;42.692;23.314;2022-08-19T14:27:42;9.20;;;5.40;;
24277;SDS011;12394;42.692;23.314;2022-08-19T14:30:11;6.43;;;5.00;;
24277;SDS011;12394;42.692;23.314;2022-08-19T14:32:37;9.33;;;7.60;;
24277;SDS011;12394;42.692;23.314;2022-08-19T14:35:03;7.13;;;5.13;;
24277;SDS011;12394;42.692;23.314;2022-08-19T14:37:28;6.03;;;5.43;;